Time;durP1;ratioP1;P1;durP2;ratioP2;P2;SDS_P1;SDS_P2;PMS_P1;PMS_P2;Temp;Humidity;BMP_temperature;BMP_pressure;BME280_temperature;BME280_humidity;BME280_pressure;Samples;Min_cycle;Max_cycle;Signal;HPM_P1;HPM_P2
2023/02/27 00:00:13;;;;;;;6.88;2.75;;;;;;;1.81;77.77;102774.88;5209783;28;20045;-74
2023/02/27 00:02:47;;;;;;;6.28;2.50;;;;;;;1.73;78.71;102765.56;5206681;28;20100;-74
2023/02/27 00:05:19;;;;;;;7.18;2.00;;;;;;;1.72;78.55;102774.22;5209533;28;20034;-74
2023/02/27 00:07:50;;;;;;;6.80;1.48;;;;;;;1.74;79.19;102769.84;5208712;28;20036;-73
2023/02/27 00:10:21;;;;;;;5.47;1.90;;;;;;;1.69;79.11;102768.19;5207532;28;20030;-74
2023/02/27 00:12:53;;;;;;;5.57;2.03;;;;;;;1.67;79.65;102769.97;5208288;28;20029;-74
2023/02/27 00:15:24;;;;;;;5.00;1.92;;;;;;;1.74;80.36;102772.44;5209686;28;20026;-74
2023/02/27 00:17:56;;;;;;;3.85;2.05;;;;;;;1.67;79.78;102764.81;5210564;28;20032;-74
2023/02/27 00:20:27;;;;;;;6.78;1.80;;;;;;;1.69;81.78;102759.59;5209202;28;20557;-74
2023/02/27 00:22:58;;;;;;;4.63;1.60;;;;;;;1.68;79.89;102766.50;5209740;28;20105;-74
2023/02/27 00:25:31;;;;;;;6.38;1.60;;;;;;;1.69;80.31;102765.63;5209680;28;20038;-74
2023/02/27 00:28:03;;;;;;;6.97;1.98;;;;;;;1.72;79.65;102766.47;5212692;28;20479;-73
2023/02/27 00:30:35;;;;;;;6.97;2.15;;;;;;;1.61;79.76;102751.13;5213555;28;20032;-74
2023/02/27 00:33:07;;;;;;;6.10;1.83;;;;;;;1.62;79.67;102755.41;5213324;28;20040;-74
2023/02/27 00:35:39;;;;;;;8.10;2.88;;;;;;;1.65;80.75;102756.22;5211368;28;20026;-74
2023/02/27 00:38:10;;;;;;;3.67;1.30;;;;;;;1.58;80.49;102748.59;5212287;28;20379;-73
2023/02/27 00:40:41;;;;;;;4.22;1.88;;;;;;;1.65;81.82;102753.63;5212123;28;20029;-74
2023/02/27 00:43:12;;;;;;;6.78;1.50;;;;;;;1.59;80.82;102755.44;5214760;28;20524;-73
2023/02/27 00:45:44;;;;;;;3.42;1.40;;;;;;;1.59;80.81;102755.44;5213534;28;20042;-72
2023/02/27 00:48:15;;;;;;;7.30;2.08;;;;;;;1.60;81.18;102741.69;5212693;28;20038;-73
2023/02/27 00:50:48;;;;;;;4.20;1.50;;;;;;;1.68;81.39;102751.00;5211619;28;20471;-73
2023/02/27 00:53:20;;;;;;;3.78;1.42;;;;;;;1.65;80.67;102753.63;5213612;28;20034;-72
2023/02/27 00:55:51;;;;;;;5.60;1.55;;;;;;;1.64;80.17;102753.66;5210265;28;20406;-73
2023/02/27 00:58:22;;;;;;;5.47;1.67;;;;;;;1.64;81.09;102751.09;5213666;28;20061;-73
2023/02/27 01:00:53;;;;;;;4.68;1.40;;;;;;;1.66;81.49;102746.72;5212808;28;20103;-73
2023/02/27 01:03:25;;;;;;;6.00;1.38;;;;;;;1.62;79.80;102748.50;5210652;28;20033;-73
2023/02/27 01:05:57;;;;;;;4.10;1.27;;;;;;;1.63;80.12;102746.78;5210649;28;20021;-72
2023/02/27 01:08:28;;;;;;;4.45;1.42;;;;;;;1.66;79.63;102749.31;5212665;28;20037;-73
2023/02/27 01:10:59;;;;;;;4.18;1.85;;;;;;;1.66;82.65;102749.31;5213843;28;20022;-73
2023/02/27 01:13:31;;;;;;;5.10;1.73;;;;;;;1.64;81.21;102746.75;5211314;28;20034;-73
2023/02/27 01:16:02;;;;;;;5.47;1.77;;;;;;;1.59;81.39;102738.25;5212536;28;20022;-73
2023/02/27 01:18:33;;;;;;;3.85;1.75;;;;;;;1.65;79.34;102745.88;5212923;28;20034;-73
2023/02/27 01:21:05;;;;;;;5.00;1.33;;;;;;;1.65;79.51;102748.47;5212277;28;20033;-73
2023/02/27 01:23:36;;;;;;;4.03;1.10;;;;;;;1.63;81.32;102750.22;5211400;28;20105;-73
2023/02/27 01:26:08;;;;;;;3.78;1.20;;;;;;;1.52;80.36;102738.38;5212996;28;20029;-73
2023/02/27 01:28:39;;;;;;;5.65;1.58;;;;;;;1.60;80.61;102750.28;5213994;28;20025;-73
2023/02/27 01:31:12;;;;;;;3.47;1.45;;;;;;;1.58;80.93;102754.59;5210349;28;20023;-73
2023/02/27 01:33:43;;;;;;;4.93;1.40;;;;;;;1.55;80.16;102749.47;5209919;28;20117;-73
2023/02/27 01:36:14;;;;;;;3.42;1.42;;;;;;;1.63;81.98;102747.66;5210590;28;20116;-73
2023/02/27 01:38:46;;;;;;;4.30;1.70;;;;;;;1.62;81.43;102745.06;5213166;28;20080;-73
2023/02/27 01:41:17;;;;;;;5.30;1.85;;;;;;;1.61;81.17;102743.38;5210406;28;20034;-73
2023/02/27 01:44:09;;;;;;;5.95;1.50;;;;;;;1.86;80.10;102742.09;5213076;28;20049;-73
2023/02/27 01:46:41;;;;;;;7.32;2.00;;;;;;;1.52;79.75;102746.97;5198685;28;20057;-73
2023/02/27 01:49:20;;;;;;;4.93;1.95;;;;;;;1.66;80.62;102742.41;5190996;28;20042;-73
2023/02/27 01:52:07;;;;;;;5.55;1.77;;;;;;;1.71;80.20;102739.78;5191242;28;20137;-73
2023/02/27 01:54:40;;;;;;;3.63;1.55;;;;;;;1.44;80.31;102735.91;5190021;28;20040;-73
2023/02/27 01:57:12;;;;;;;6.68;1.65;;;;;;;1.41;79.86;102729.06;5190862;28;20077;-73
2023/02/27 01:59:43;;;;;;;6.13;2.17;;;;;;;1.51;79.57;102740.09;5192514;28;20034;-73
2023/02/27 02:02:26;;;;;;;6.10;2.05;;;;;;;1.62;80.52;102735.59;5189333;28;20026;-73
2023/02/27 02:04:58;;;;;;;3.95;1.50;;;;;;;1.44;80.06;102739.34;5190501;28;20494;-73
2023/02/27 02:07:29;;;;;;;5.72;2.30;;;;;;;1.24;80.83;102722.47;5192468;28;20034;-73
2023/02/27 02:10:01;;;;;;;5.43;2.00;;;;;;;1.27;81.22;102732.75;5190752;28;20108;-73
2023/02/27 02:12:36;;;;;;;3.80;1.92;;;;;;;1.32;81.43;102730.94;5189710;28;20053;-73
2023/02/27 02:15:08;;;;;;;3.80;1.90;;;;;;;1.23;82.61;102736.25;5191165;28;20085;-73
2023/02/27 02:18:14;;;;;;;6.88;1.80;;;;;;;1.46;82.60;102737.56;5188609;28;20073;-73
2023/02/27 02:21:24;;;;;;;4.57;1.48;;;;;;;1.38;83.14;102736.84;5189056;28;20381;-72
2023/02/27 02:24:26;;;;;;;5.13;1.55;;;;;;;1.46;84.97;102740.16;5191423;28;20145;-73
2023/02/27 02:27:10;;;;;;;6.28;1.42;;;;;;;1.28;83.65;102739.59;5190445;28;20105;-73
2023/02/27 02:30:19;;;;;;;3.83;1.35;;;;;;;1.59;83.08;102737.38;5190320;28;20034;-73
2023/02/27 02:33:19;;;;;;;6.07;1.60;;;;;;;1.45;81.80;102735.88;5190088;28;20034;-72
2023/02/27 02:36:16;;;;;;;4.68;1.50;;;;;;;1.41;82.51;102735.97;5191159;28;20088;-73
2023/02/27 02:38:58;;;;;;;5.00;1.77;;;;;;;1.33;82.19;102735.25;5191536;28;20029;-72
2023/02/27 02:41:48;;;;;;;8.15;1.50;;;;;;;1.42;82.28;102740.25;5190033;28;20112;-73
2023/02/27 02:44:38;;;;;;;2.45;1.30;;;;;;;1.45;81.58;102745.38;5189483;28;20455;-72
2023/02/27 02:47:43;;;;;;;3.95;1.63;;;;;;;1.43;82.96;102737.63;5210493;28;20048;-73
2023/02/27 02:50:29;;;;;;;6.30;1.52;;;;;;;1.45;80.95;102747.94;5211164;28;20033;-73
2023/02/27 02:53:14;;;;;;;6.05;1.67;;;;;;;1.38;81.62;102746.34;5211922;28;20034;-73
2023/02/27 02:55:52;;;;;;;4.28;1.63;;;;;;;1.32;81.12;102747.28;5210833;28;20532;-73
2023/02/27 02:58:42;;;;;;;3.55;1.40;;;;;;;1.39;81.71;102740.28;5209799;28;20108;-73
2023/02/27 03:01:16;;;;;;;5.55;1.75;;;;;;;1.22;83.21;102750.91;5206493;28;20048;-73
2023/02/27 03:03:53;;;;;;;4.60;1.83;;;;;;;1.26;83.62;102744.81;5209460;28;20017;-73
2023/02/27 03:06:39;;;;;;;7.05;1.80;;;;;;;1.26;82.38;102747.38;5205757;28;20458;-73
2023/02/27 03:09:17;;;;;;;6.28;1.63;;;;;;;1.16;84.25;102745.81;5208950;28;20139;-73
2023/02/27 03:11:51;;;;;;;5.22;1.98;;;;;;;1.11;83.34;102747.63;5205533;28;20028;-73
2023/02/27 03:14:32;;;;;;;4.05;1.60;;;;;;;1.27;84.24;102751.66;5204999;28;20026;-72
2023/02/27 03:17:09;;;;;;;5.93;1.67;;;;;;;1.24;81.98;102743.09;5208821;28;20403;-73
2023/02/27 03:19:56;;;;;;;5.75;1.67;;;;;;;1.39;82.30;102754.03;5194820;28;20056;-73
2023/02/27 03:22:34;;;;;;;6.38;2.28;;;;;;;1.31;81.47;102755.06;5210301;28;20532;-73
2023/02/27 03:25:10;;;;;;;4.30;1.90;;;;;;;1.27;82.49;102749.09;5211614;28;20579;-73
2023/02/27 03:28:04;;;;;;;4.05;1.60;;;;;;;1.19;82.71;102748.34;5207198;28;20026;-73
2023/02/27 03:30:39;;;;;;;;;;;;;;;1.84;78.67;102759.34;5208111;28;20042;-72
2023/02/27 03:33:23;;;;;;;4.53;2.00;;;;;;;1.48;80.57;102765.97;5208199;28;20382;-73
2023/02/27 03:36:08;;;;;;;4.38;1.65;;;;;;;1.43;80.82;102758.28;5206986;28;20083;-73
2023/02/27 03:38:44;;;;;;;5.80;2.00;;;;;;;1.26;80.78;102762.88;5203944;28;20034;-73
2023/02/27 03:41:21;;;;;;;3.83;1.77;;;;;;;1.25;80.61;102770.63;5207963;28;20038;-73
2023/02/27 03:44:30;;;;;;;5.18;1.77;;;;;;;1.53;80.28;102766.75;5209376;28;20021;-73
2023/02/27 03:47:01;;;;;;;4.63;1.98;;;;;;;1.16;80.88;102774.22;5194950;28;20049;-73
2023/02/27 03:49:33;;;;;;;5.38;1.83;;;;;;;1.13;80.52;102777.69;5209441;28;20033;-73
2023/02/27 03:52:04;;;;;;;6.07;1.85;;;;;;;1.13;82.19;102774.25;5210056;28;20486;-73
2023/02/27 03:54:44;;;;;;;4.50;1.90;;;;;;;1.08;82.15;102769.16;5209557;28;20045;-73
2023/02/27 03:57:16;;;;;;;8.13;2.38;;;;;;;1.05;81.48;102782.09;5206026;28;20104;-73
2023/02/27 03:59:48;;;;;;;4.82;1.75;;;;;;;1.08;81.67;102773.47;5206419;28;20028;-73
2023/02/27 04:02:19;;;;;;;4.60;1.75;;;;;;;1.02;81.47;102776.13;5213244;28;20438;-73
2023/02/27 04:04:50;;;;;;;6.22;2.55;;;;;;;1.05;82.51;102776.09;5214393;28;20041;-73
2023/02/27 04:07:34;;;;;;;3.78;1.88;;;;;;;1.21;82.50;102778.44;5214678;28;20509;-73
2023/02/27 04:10:29;;;;;;;4.57;1.80;;;;;;;1.16;82.57;102775.06;5216192;28;20116;-73
2023/02/27 04:13:22;;;;;;;3.65;1.83;;;;;;;1.04;82.19;102784.72;5216481;28;20069;-73
2023/02/27 04:16:14;;;;;;;4.53;2.00;;;;;;;1.16;82.14;102785.38;5215927;28;20374;-73
2023/02/27 04:19:25;;;;;;;10.02;2.30;;;;;;;1.18;82.50;102775.91;5216971;28;20033;-72
2023/02/27 04:22:16;;;;;;;4.43;1.65;;;;;;;1.01;82.54;102777.84;5217052;28;20106;-73
2023/02/27 04:25:04;;;;;;;6.60;2.03;;;;;;;1.07;84.13;102780.38;5215440;28;20065;-73
2023/02/27 04:27:56;;;;;;;7.32;1.95;;;;;;;1.06;83.09;102782.94;5215634;28;20487;-73
2023/02/27 04:30:58;;;;;;;5.93;1.70;;;;;;;1.07;83.16;102785.53;5214048;28;20044;-73
2023/02/27 04:33:45;;;;;;;7.10;1.98;;;;;;;0.84;83.73;102787.56;5213257;28;20497;-72
2023/02/27 04:36:40;;;;;;;11.77;2.47;;;;;;;0.90;84.07;102792.63;5216817;28;20035;-73
2023/02/27 04:39:23;;;;;;;6.50;1.80;;;;;;;0.68;84.86;102786.88;5214508;28;20364;-73
2023/02/27 04:42:02;;;;;;;5.70;2.05;;;;;;;0.69;85.18;102794.63;5215285;28;20025;-73
2023/02/27 04:44:36;;;;;;;6.53;2.00;;;;;;;0.57;85.46;102793.91;5215974;28;20065;-73
2023/02/27 04:47:11;;;;;;;3.50;1.70;;;;;;;0.51;86.01;102801.72;5213629;28;20100;-73
2023/02/27 04:49:49;;;;;;;6.53;2.63;;;;;;;0.52;85.74;102800.84;5216213;28;20037;-73
2023/02/27 04:52:29;;;;;;;4.57;1.65;;;;;;;0.50;86.50;102797.44;5216034;28;20105;-73
2023/02/27 04:55:42;;;;;;;4.63;2.08;;;;;;;0.77;86.36;102791.09;5215639;28;20026;-73
2023/02/27 04:58:20;;;;;;;4.80;2.10;;;;;;;0.56;87.37;102792.19;5115915;29;20046;-73
2023/02/27 05:01:08;;;;;;;4.78;1.90;;;;;;;0.58;86.97;102796.47;5113741;29;20039;-73
2023/02/27 05:03:45;;;;;;;5.15;1.67;;;;;;;0.51;87.38;102792.25;5187723;28;20033;-73
2023/02/27 05:06:20;;;;;;;4.68;1.85;;;;;;;0.50;88.22;102803.44;5214914;28;20030;-73
2023/02/27 05:09:07;;;;;;;4.18;1.73;;;;;;;0.50;87.95;102784.56;5216518;28;20026;-73
2023/02/27 05:12:03;;;;;;;4.50;1.77;;;;;;;0.72;86.97;102801.47;5212798;28;20037;-73
2023/02/27 05:14:42;;;;;;;7.57;2.10;;;;;;;0.44;88.52;102790.63;5212059;28;20108;-73
2023/02/27 05:17:19;;;;;;;8.45;2.10;;;;;;;0.41;87.58;102791.50;5214011;28;20029;-73
2023/02/27 05:19:51;;;;;;;3.10;1.85;;;;;;;0.39;87.76;102813.88;5211061;28;20092;-73
2023/02/27 05:22:37;;;;;;;5.25;1.70;;;;;;;0.63;87.78;102820.47;5209195;28;20029;-73
2023/02/27 05:25:22;;;;;;;5.60;1.85;;;;;;;0.52;87.60;102808.56;5211839;28;20036;-73
2023/02/27 05:28:16;;;;;;;5.63;1.80;;;;;;;0.68;88.14;102810.09;5210674;28;20265;-72
2023/02/27 05:31:17;;;;;;;4.43;1.90;;;;;;;0.67;87.65;102817.00;5206420;28;20022;-73
2023/02/27 05:34:02;;;;;;;4.80;2.00;;;;;;;0.62;87.84;102815.34;5211759;28;20030;-72
2023/02/27 05:36:40;;;;;;;5.05;1.80;;;;;;;0.48;87.28;102815.50;5210721;28;20029;-73
2023/02/27 05:39:14;;;;;;;3.97;1.80;;;;;;;0.43;87.31;102819.84;5210198;28;20342;-73
2023/02/27 05:41:51;;;;;;;5.35;2.38;;;;;;;0.34;88.93;102814.78;5212828;28;20034;-73
2023/02/27 05:44:28;;;;;;;4.45;1.90;;;;;;;0.34;88.93;102815.66;5212903;28;20065;-73
2023/02/27 05:47:12;;;;;;;4.93;1.75;;;;;;;0.39;89.08;102820.75;5212143;28;20037;-73
2023/02/27 05:49:52;;;;;;;3.90;1.70;;;;;;;0.26;88.85;102812.28;5210822;28;20030;-76
2023/02/27 05:52:25;;;;;;;5.20;2.00;;;;;;;0.31;89.18;102827.72;5209009;28;20026;-73
2023/02/27 05:55:10;;;;;;;6.03;2.15;;;;;;;0.33;89.15;102834.56;5207263;28;20059;-72
2023/02/27 05:57:47;;;;;;;3.45;1.73;;;;;;;0.31;89.73;102822.56;5209664;28;20030;-72
2023/02/27 06:00:37;;;;;;;4.22;1.83;;;;;;;0.41;89.35;102825.00;5206663;28;20196;-73
2023/02/27 06:03:09;;;;;;;3.92;2.30;;;;;;;0.28;90.64;102843.22;5210203;28;20076;-72
2023/02/27 06:05:42;;;;;;;6.90;1.73;;;;;;;0.18;90.48;102832.97;5207916;28;20479;-72
2023/02/27 06:08:14;;;;;;;4.72;1.80;;;;;;;0.26;90.82;102844.94;5212081;28;20514;-72
2023/02/27 06:10:46;;;;;;;4.27;1.70;;;;;;;0.27;91.57;102851.84;5186849;28;20038;-74
2023/02/27 06:13:17;;;;;;;4.68;1.95;;;;;;;0.13;91.58;102839.91;5209080;28;20293;-72
2023/02/27 06:15:49;;;;;;;5.88;2.03;;;;;;;0.23;92.80;102844.13;5211994;28;20025;-74
2023/02/27 06:18:21;;;;;;;4.47;2.00;;;;;;;0.21;92.17;102848.44;5210826;28;20064;-74
2023/02/27 06:20:53;;;;;;;3.88;2.25;;;;;;;0.26;93.23;102850.94;5209618;28;20574;-74
2023/02/27 06:23:24;;;;;;;6.00;2.22;;;;;;;0.28;92.96;102844.06;5210635;28;20109;-74
2023/02/27 06:25:55;;;;;;;6.20;2.00;;;;;;;0.21;92.79;102845.84;5206633;28;20037;-74
2023/02/27 06:28:26;;;;;;;3.22;2.00;;;;;;;0.33;94.51;102851.75;5210193;28;20040;-74
2023/02/27 06:30:58;;;;;;;6.47;1.98;;;;;;;0.31;93.45;102858.66;5210843;28;20030;-75
2023/02/27 06:33:29;;;;;;;5.47;2.20;;;;;;;0.35;93.59;102857.75;5206142;28;20748;-74
2023/02/27 06:36:00;;;;;;;6.22;2.40;;;;;;;0.29;93.94;102865.53;5209983;28;20029;-74
2023/02/27 06:38:32;;;;;;;8.00;2.63;;;;;;;0.22;93.12;102863.00;5209977;28;20036;-75
2023/02/27 06:41:04;;;;;;;5.32;2.10;;;;;;;0.27;94.55;102870.72;5209724;28;20085;-73
2023/02/27 06:43:35;;;;;;;6.15;2.20;;;;;;;0.27;94.07;102868.16;5212838;28;20163;-74
2023/02/27 06:46:07;;;;;;;6.22;2.35;;;;;;;0.27;94.79;102869.88;5224706;22;20061;-71
2023/02/27 06:48:38;;;;;;;5.15;2.35;;;;;;;0.32;94.40;102881.00;5200916;28;20022;-71
2023/02/27 06:51:09;;;;;;;5.63;2.30;;;;;;;0.23;95.01;102884.50;5187238;28;20061;-71
2023/02/27 06:53:41;;;;;;;5.90;2.42;;;;;;;0.35;95.15;102896.44;5192977;28;20021;-71
2023/02/27 06:56:12;;;;;;;5.07;2.10;;;;;;;0.33;94.77;102891.28;5197895;28;20017;-71
2023/02/27 06:58:43;;;;;;;7.13;2.85;;;;;;;0.38;95.95;102896.38;5197356;28;20035;-70
2023/02/27 07:01:14;;;;;;;5.20;2.67;;;;;;;0.39;95.20;102900.69;5197804;28;20514;-71
2023/02/27 07:03:46;;;;;;;8.27;2.85;;;;;;;0.44;95.87;102899.75;5197679;28;20030;-70
2023/02/27 07:06:17;;;;;;;5.32;2.78;;;;;;;0.43;94.68;102912.69;5198243;28;20034;-70
2023/02/27 07:08:48;;;;;;;10.27;2.50;;;;;;;0.46;94.15;102915.25;5193135;28;20396;-70
2023/02/27 07:11:20;;;;;;;4.80;2.80;;;;;;;0.51;95.67;102920.34;5200064;28;20037;-70
2023/02/27 07:13:51;;;;;;;6.38;2.22;;;;;;;0.37;95.98;102917.88;5202000;28;20029;-71
2023/02/27 07:16:22;;;;;;;7.22;2.15;;;;;;;0.41;99.40;102920.41;5201367;28;20438;-70
2023/02/27 07:18:53;;;;;;;5.03;2.35;;;;;;;0.51;97.99;102922.94;5199244;28;20383;-71
2023/02/27 07:21:25;;;;;;;6.95;3.10;;;;;;;0.48;97.74;102934.13;5199387;28;20042;-70
2023/02/27 07:23:56;;;;;;;5.63;2.38;;;;;;;0.51;97.12;102941.84;5196033;28;20019;-70
2023/02/27 07:26:27;;;;;;;7.50;2.97;;;;;;;0.59;97.93;102936.59;5201358;28;20033;-70
2023/02/27 07:28:59;;;;;;;4.63;2.90;;;;;;;0.72;96.63;102939.06;5197787;28;20033;-70
2023/02/27 07:31:30;;;;;;;5.85;2.90;;;;;;;0.65;99.53;102937.41;5198543;28;20026;-71
2023/02/27 07:34:02;;;;;;;9.43;3.35;;;;;;;0.68;99.37;102933.91;5200024;28;20475;-71
2023/02/27 07:36:33;;;;;;;6.50;2.67;;;;;;;0.73;100.00;102940.75;5200635;28;20100;-71
2023/02/27 07:39:05;;;;;;;4.45;2.55;;;;;;;0.76;99.63;102939.00;5201794;28;20278;-71
2023/02/27 07:41:36;;;;;;;5.93;3.33;;;;;;;0.75;99.66;102933.00;5204837;28;20034;-71
2023/02/27 07:44:08;;;;;;;8.02;2.78;;;;;;;0.72;100.00;102908.09;5205327;28;20052;-71
2023/02/27 07:46:39;;;;;;;7.00;3.00;;;;;;;0.92;100.00;102930.25;5198302;28;20058;-71
2023/02/27 07:49:10;;;;;;;6.40;2.47;;;;;;;0.94;99.79;102934.50;5195738;28;20079;-70
2023/02/27 07:51:42;;;;;;;7.60;3.08;;;;;;;0.96;100.00;102922.44;5200659;28;20394;-71
2023/02/27 07:54:13;;;;;;;7.80;2.80;;;;;;;1.04;100.00;102929.25;5199927;28;20018;-71
2023/02/27 07:56:45;;;;;;;5.90;2.78;;;;;;;1.00;100.00;102928.44;5196882;28;20037;-71
2023/02/27 07:59:16;;;;;;;4.65;2.67;;;;;;;1.07;100.00;102924.06;5196637;28;20033;-71
2023/02/27 08:01:47;;;;;;;6.53;2.60;;;;;;;1.20;98.29;102930.78;5198444;28;20022;-71
2023/02/27 08:04:19;;;;;;;7.40;2.75;;;;;;;1.13;99.47;102929.97;5201250;28;20406;-71
2023/02/27 08:06:50;;;;;;;5.30;2.75;;;;;;;1.20;98.53;102933.34;5193984;28;20380;-71
2023/02/27 08:09:22;;;;;;;7.55;2.60;;;;;;;1.26;97.12;102924.69;5200281;28;20034;-71
2023/02/27 08:11:53;;;;;;;5.45;2.67;;;;;;;1.27;97.25;102921.22;5196074;28;20678;-71
2023/02/27 08:14:25;;;;;;;4.68;2.30;;;;;;;1.44;95.35;102930.47;5199950;28;20480;-71
2023/02/27 08:16:56;;;;;;;4.55;2.28;;;;;;;1.53;95.27;102926.06;5195013;28;20469;-71
2023/02/27 08:19:27;;;;;;;8.20;2.42;;;;;;;1.58;94.57;102932.84;5193497;28;20058;-71
2023/02/27 08:21:58;;;;;;;4.88;2.55;;;;;;;1.58;96.44;102938.03;5194611;28;20150;-71
2023/02/27 08:24:30;;;;;;;6.30;2.80;;;;;;;1.65;94.37;102929.31;5195125;28;20113;-70
2023/02/27 08:27:01;;;;;;;6.32;2.72;;;;;;;1.78;94.22;102935.19;5202306;28;20048;-71
2023/02/27 08:29:33;;;;;;;8.07;2.60;;;;;;;1.91;92.88;102935.84;5192166;28;20026;-71
2023/02/27 08:32:04;;;;;;;6.63;2.85;;;;;;;1.88;93.70;102936.72;5193630;28;20080;-71
2023/02/27 08:34:35;;;;;;;5.30;2.90;;;;;;;1.95;93.01;102947.84;5199471;28;20037;-71
2023/02/27 08:37:07;;;;;;;7.65;2.92;;;;;;;1.92;92.24;102946.16;5201194;28;20068;-71
2023/02/27 08:39:38;;;;;;;6.53;2.70;;;;;;;1.95;92.12;102950.44;5198818;28;20069;-71
2023/02/27 08:42:09;;;;;;;5.18;2.53;;;;;;;2.06;90.96;102956.28;5200143;28;20083;-71
2023/02/27 08:44:41;;;;;;;7.50;3.00;;;;;;;2.12;90.25;102957.91;5196953;28;20038;-71
2023/02/27 08:47:12;;;;;;;5.60;2.63;;;;;;;2.26;88.18;102960.28;5202038;28;20030;-71
2023/02/27 08:49:43;;;;;;;5.22;2.50;;;;;;;2.23;89.76;102947.41;5198003;28;20558;-71
2023/02/27 08:52:15;;;;;;;4.63;2.33;;;;;;;2.40;88.68;102960.94;5192271;28;20061;-71
2023/02/27 08:54:46;;;;;;;5.22;2.80;;;;;;;2.47;87.28;102959.94;5202719;28;20771;-71
2023/02/27 08:57:17;;;;;;;8.93;2.63;;;;;;;2.54;85.13;102958.97;5204672;28;20037;-71
2023/02/27 08:59:48;;;;;;;4.07;2.00;;;;;;;2.58;86.04;102955.44;5204282;28;20030;-71
2023/02/27 09:02:22;;;;;;;4.28;2.00;;;;;;;2.61;86.84;102959.69;5206469;28;20021;-71
2023/02/27 09:04:54;;;;;;;8.38;2.95;;;;;;;2.68;86.03;102959.56;5198111;28;20113;-71
2023/02/27 09:07:25;;;;;;;7.57;2.10;;;;;;;2.72;85.76;102962.09;5196168;28;20098;-71
2023/02/27 09:09:56;;;;;;;7.47;2.22;;;;;;;2.77;84.29;102963.75;5200599;28;20180;-71
2023/02/27 09:12:27;;;;;;;5.15;1.92;;;;;;;2.84;82.85;102969.63;5200163;28;20022;-71
2023/02/27 09:14:59;;;;;;;7.22;2.60;;;;;;;2.97;82.90;102973.72;5200913;28;20053;-72
2023/02/27 09:17:30;;;;;;;4.80;2.40;;;;;;;2.94;83.61;102971.19;5204506;28;20033;-71
2023/02/27 09:20:03;;;;;;;8.57;3.03;;;;;;;3.00;83.12;102972.81;5199233;28;20026;-71
2023/02/27 09:22:35;;;;;;;5.38;2.50;;;;;;;3.03;83.44;102964.97;5201787;28;20038;-71
2023/02/27 09:25:06;;;;;;;6.75;2.40;;;;;;;3.12;82.46;102968.25;5198151;28;20033;-71
2023/02/27 09:27:38;;;;;;;4.03;2.25;;;;;;;3.21;83.92;102972.38;5200930;28;20040;-71
2023/02/27 09:30:10;;;;;;;5.22;2.60;;;;;;;3.28;83.38;102975.72;5199863;28;20026;-71
2023/02/27 09:32:41;;;;;;;6.88;2.22;;;;;;;3.46;81.33;102974.50;5198809;28;20622;-71
2023/02/27 09:35:14;;;;;;;4.45;2.50;;;;;;;3.51;81.58;102983.84;5196347;28;20053;-71
2023/02/27 09:37:47;;;;;;;4.10;2.10;;;;;;;3.60;79.31;102978.50;5199768;28;20038;-72
2023/02/27 09:40:23;;;;;;;14.07;3.23;;;;;;;3.76;78.73;102979.00;5202778;28;20434;-72
2023/02/27 09:42:59;;;;;;;5.50;2.03;;;;;;;3.88;77.61;102976.13;5202758;28;20026;-72
2023/02/27 09:45:35;;;;;;;4.10;1.98;;;;;;;3.93;76.61;102976.03;5199682;28;20046;-72
2023/02/27 09:48:31;;;;;;;6.95;1.75;;;;;;;4.29;75.71;102976.06;5201292;28;20041;-72
2023/02/27 09:51:03;;;;;;;4.10;2.00;;;;;;;4.19;72.69;102984.97;5196139;28;20286;-73
2023/02/27 09:53:41;;;;;;;6.10;2.38;;;;;;;4.26;71.74;102976.13;5203420;28;21031;-72
2023/02/27 09:56:20;;;;;;;3.63;1.25;;;;;;;4.37;70.26;102963.75;5197345;28;20034;-72
2023/02/27 09:59:29;;;;;;;4.70;1.55;;;;;;;4.68;69.58;102970.78;5201744;28;20394;-72
2023/02/27 10:02:25;;;;;;;4.43;1.30;;;;;;;4.76;70.97;102963.63;5196522;28;20112;-72
2023/02/27 10:05:25;;;;;;;4.47;1.50;;;;;;;4.97;71.21;102968.25;5193698;28;20038;-72
2023/02/27 10:08:08;;;;;;;4.57;1.50;;;;;;;4.69;68.66;102978.50;5184897;28;20062;-73
2023/02/27 10:10:53;;;;;;;7.40;1.90;;;;;;;5.03;69.08;102981.06;5200710;28;20031;-73
2023/02/27 10:13:38;;;;;;;3.47;1.70;;;;;;;5.08;67.39;102974.00;5197709;28;20033;-73
2023/02/27 10:16:16;;;;;;;6.45;2.15;;;;;;;5.20;65.88;102971.97;5201916;28;20080;-72
2023/02/27 10:19:25;;;;;;;9.45;1.90;;;;;;;5.52;65.26;102974.47;5195143;28;20399;-73
2023/02/27 10:22:02;;;;;;;4.10;1.30;;;;;;;5.24;63.30;102973.56;5173835;28;20038;-73
2023/02/27 10:24:42;;;;;;;4.80;1.50;;;;;;;5.21;63.91;102974.50;5197607;28;20030;-73
2023/02/27 10:27:19;;;;;;;3.65;1.55;;;;;;;5.25;63.90;102975.28;5203866;28;20026;-73
2023/02/27 10:29:57;;;;;;;31.67;4.30;;;;;;;5.27;64.26;102973.50;5199486;28;20030;-73
2023/02/27 10:32:33;;;;;;;4.43;1.50;;;;;;;5.42;61.63;102965.25;5202268;28;20116;-73
2023/02/27 10:35:26;;;;;;;4.00;1.38;;;;;;;5.69;63.45;102960.13;5200769;28;20026;-73
2023/02/27 10:38:01;;;;;;;4.28;1.15;;;;;;;5.54;61.86;102951.03;5201692;28;20121;-73
2023/02/27 10:40:35;;;;;;;3.50;1.13;;;;;;;5.62;59.41;102964.66;5200850;28;20030;-73
2023/02/27 10:43:07;;;;;;;4.68;1.15;;;;;;;5.66;58.42;102962.81;5205713;28;20030;-73
2023/02/27 10:45:38;;;;;;;4.72;1.52;;;;;;;5.72;58.41;102962.63;5201405;28;20514;-73
2023/02/27 10:48:11;;;;;;;4.00;1.30;;;;;;;5.92;57.54;102949.91;5200566;28;20480;-73
2023/02/27 10:50:45;;;;;;;4.90;1.15;;;;;;;6.03;56.78;102950.41;5204038;28;20037;-73
2023/02/27 10:53:34;;;;;;;5.60;1.25;;;;;;;6.21;58.10;102946.38;5199997;28;20468;-73
2023/02/27 10:56:12;;;;;;;5.70;1.20;;;;;;;6.05;56.11;102948.59;5202607;28;20038;-73
2023/02/27 10:58:44;;;;;;;3.13;1.00;;;;;;;6.16;56.95;102950.00;5201190;28;20108;-73
2023/02/27 11:01:16;;;;;;;2.95;1.00;;;;;;;6.09;54.49;102934.56;5204840;28;20033;-73
2023/02/27 11:03:55;;;;;;;7.10;1.63;;;;;;;6.25;54.77;102936.69;5199225;28;20204;-73
2023/02/27 11:06:26;;;;;;;6.35;1.52;;;;;;;6.40;54.37;102936.16;5199723;28;20136;-74
2023/02/27 11:09:22;;;;;;;4.10;1.38;;;;;;;6.67;54.84;102926.59;5198014;28;20586;-73
2023/02/27 11:11:54;;;;;;;3.67;1.02;;;;;;;6.63;55.16;102916.28;5197396;28;20444;-73
2023/02/27 11:14:29;;;;;;;3.72;1.00;;;;;;;6.73;54.29;102923.75;5198253;28;20021;-73
2023/02/27 11:17:02;;;;;;;4.13;1.10;;;;;;;6.77;52.29;102914.06;5201254;28;20117;-73
2023/02/27 11:19:37;;;;;;;5.23;1.77;;;;;;;6.83;52.77;102919.91;5198080;28;20379;-74
2023/02/27 11:22:15;;;;;;;4.35;1.60;;;;;;;6.75;52.87;102910.69;5201539;28;20289;-73
2023/02/27 11:24:47;;;;;;;4.65;1.30;;;;;;;6.64;53.36;102907.59;5195566;28;20030;-74
2023/02/27 11:27:29;;;;;;;3.03;1.10;;;;;;;6.82;51.97;102901.75;5201289;28;20360;-73
2023/02/27 11:30:05;;;;;;;4.03;1.27;;;;;;;6.83;52.12;102890.41;5198412;28;20033;-73
2023/02/27 11:32:41;;;;;;;3.75;1.27;;;;;;;6.99;53.60;102899.34;5197324;28;20090;-73
2023/02/27 11:35:33;;;;;;;3.08;1.10;;;;;;;6.98;51.76;102900.28;5204929;28;20399;-73
2023/02/27 11:38:07;;;;;;;4.53;1.42;;;;;;;7.14;51.59;102892.72;5198544;28;20042;-73
2023/02/27 11:40:49;;;;;;;6.07;1.50;;;;;;;7.18;51.32;102890.84;5198722;28;20045;-73
2023/02/27 11:43:26;;;;;;;3.25;1.52;;;;;;;7.37;50.16;102889.25;5202656;28;20019;-73
2023/02/27 11:46:11;;;;;;;5.90;1.65;;;;;;;7.56;51.15;102887.63;5199577;28;20137;-73
2023/02/27 11:48:49;;;;;;;3.50;1.45;;;;;;;7.63;51.26;102883.00;5196627;28;20073;-73
2023/02/27 11:51:29;;;;;;;4.25;1.42;;;;;;;7.52;50.65;102882.59;5197486;28;20033;-73
2023/02/27 11:54:14;;;;;;;3.45;1.20;;;;;;;7.79;51.17;102875.41;5202474;28;20026;-73
2023/02/27 11:57:06;;;;;;;2.78;1.10;;;;;;;7.88;49.75;102875.06;5200515;28;20493;-73
2023/02/27 11:59:43;;;;;;;4.20;1.17;;;;;;;7.85;48.96;102874.34;5199895;28;20036;-73
2023/02/27 12:02:23;;;;;;;3.40;0.95;;;;;;;8.00;48.66;102876.31;5198624;28;20024;-73
2023/02/27 12:05:05;;;;;;;4.40;1.20;;;;;;;7.80;49.19;102892.75;5195725;28;20028;-73
2023/02/27 12:08:04;;;;;;;6.75;1.13;;;;;;;7.79;48.20;102884.09;5197606;28;20026;-73
2023/02/27 12:11:05;;;;;;;5.07;1.48;;;;;;;7.56;48.65;102878.94;5194911;28;20439;-73
2023/02/27 12:13:40;;;;;;;4.10;1.35;;;;;;;7.46;48.15;102875.88;5187126;28;20034;-73
2023/02/27 12:16:33;;;;;;;4.78;1.45;;;;;;;7.72;48.71;102879.19;5196868;28;20040;-73
2023/02/27 12:19:30;;;;;;;2.45;1.30;;;;;;;7.48;47.75;102881.84;5197141;28;20038;-73
2023/02/27 12:22:17;;;;;;;2.83;0.80;;;;;;;7.67;49.04;102881.97;5208508;28;20053;-73